Time;durP1;ratioP1;P1;durP2;ratioP2;P2;SDS_P1;SDS_P2;PMS_P1;PMS_P2;Temp;Humidity;BMP_temperature;BMP_pressure;BME280_temperature;BME280_humidity;BME280_pressure;Samples;Min_cycle;Max_cycle;Signal;HPM_P1;HPM_P2
2022/10/03 00:00:28;;;;;;;16.67;4.63;;;11.00;99.90;;;;;;5071075;28;20152;-45
2022/10/03 00:03:29;;;;;;;18.80;4.47;;;10.90;99.90;;;;;;5072052;28;20036;-45
2022/10/03 00:06:08;;;;;;;21.60;3.42;;;10.90;99.90;;;;;;5072071;28;20028;-44
2022/10/03 00:09:03;;;;;;;24.85;3.97;;;10.90;99.90;;;;;;5071529;28;20017;-45
2022/10/03 00:11:42;;;;;;;28.48;4.72;;;11.00;99.90;;;;;;5060360;28;20108;-45
2022/10/03 00:14:16;;;;;;;16.30;4.55;;;10.90;99.90;;;;;;5063316;28;20033;-44
2022/10/03 00:17:15;;;;;;;26.08;4.28;;;10.90;99.90;;;;;;5072167;28;20059;-44
2022/10/03 00:20:05;;;;;;;31.90;4.43;;;10.90;99.90;;;;;;5071855;28;20505;-44
2022/10/03 00:22:48;;;;;;;27.02;4.47;;;10.80;99.90;;;;;;5071289;28;20434;-44
2022/10/03 00:25:45;;;;;;;18.05;3.95;;;10.80;99.90;;;;;;5071675;28;20024;-44
2022/10/03 00:28:42;;;;;;;14.00;3.38;;;10.90;99.90;;;;;;5063279;28;20494;-44
2022/10/03 00:31:20;;;;;;;18.92;3.08;;;10.90;99.90;;;;;;5071436;28;20037;-44
2022/10/03 00:34:04;;;;;;;19.38;3.65;;;10.90;99.90;;;;;;5069550;28;20166;-45
2022/10/03 00:36:51;;;;;;;26.83;4.63;;;10.90;99.90;;;;;;5069886;28;20024;-44
2022/10/03 00:39:59;;;;;;;17.75;3.55;;;10.90;99.90;;;;;;5071189;28;20033;-45
2022/10/03 00:42:59;;;;;;;21.92;3.25;;;11.00;99.90;;;;;;5055197;28;20033;-45
2022/10/03 00:45:46;;;;;;;16.13;4.20;;;11.00;99.90;;;;;;5031457;28;20095;-44
2022/10/03 00:48:41;;;;;;;18.00;4.03;;;11.00;99.90;;;;;;5030081;28;20498;-45
2022/10/03 00:51:32;;;;;;;21.05;3.85;;;11.00;99.90;;;;;;5029807;28;20175;-44
2022/10/03 00:54:12;;;;;;;28.48;3.85;;;10.90;99.90;;;;;;5031552;28;20102;-44
2022/10/03 00:56:38;;;;;;;16.55;4.40;;;11.00;99.90;;;;;;5040147;28;20530;-44
2022/10/03 00:59:25;;;;;;;18.73;3.35;;;10.90;99.90;;;;;;5043100;28;20151;-44
2022/10/03 01:01:51;;;;;;;22.23;4.63;;;10.90;99.90;;;;;;5049841;28;20033;-44
2022/10/03 01:04:31;;;;;;;19.95;4.07;;;10.90;99.90;;;;;;5050298;28;20102;-44
2022/10/03 01:07:23;;;;;;;19.38;4.18;;;10.90;99.90;;;;;;5051052;28;20013;-45
2022/10/03 01:10:18;;;;;;;21.52;3.65;;;10.90;99.90;;;;;;5047290;28;20021;-44
2022/10/03 01:13:20;;;;;;;21.05;4.28;;;11.00;99.90;;;;;;5043214;28;20017;-44
2022/10/03 01:16:00;;;;;;;19.65;4.88;;;11.00;99.90;;;;;;5048770;28;20095;-45
2022/10/03 01:18:50;;;;;;;16.98;3.72;;;10.90;99.90;;;;;;5039697;28;20471;-44
2022/10/03 01:21:23;;;;;;;37.63;4.33;;;11.00;99.90;;;;;;5041381;28;20044;-44
2022/10/03 01:23:51;;;;;;;12.15;3.47;;;11.00;99.90;;;;;;5049890;28;20032;-46
2022/10/03 01:26:53;;;;;;;25.92;3.92;;;11.00;99.90;;;;;;5049940;28;20021;-44
2022/10/03 01:32:44;;;;;;;23.42;3.50;;;10.90;99.90;;;;;;5050304;28;20076;-44
2022/10/03 01:35:49;;;;;;;24.95;5.70;;;11.00;99.90;;;;;;5050301;28;20395;-44
2022/10/03 01:38:19;;;;;;;20.60;4.40;;;11.00;99.90;;;;;;5049028;28;20025;-45
2022/10/03 01:41:14;;;;;;;26.10;4.30;;;10.90;99.90;;;;;;5046881;28;20024;-44
2022/10/03 01:43:56;;;;;;;24.27;5.15;;;11.00;99.90;;;;;;5052019;28;20291;-44
2022/10/03 01:46:31;;;;;;;14.85;3.25;;;11.00;99.90;;;;;;5049024;28;20153;-45
2022/10/03 01:49:18;;;;;;;26.60;4.43;;;11.00;99.90;;;;;;5050346;28;20096;-45
2022/10/03 01:52:09;;;;;;;26.13;4.70;;;11.00;99.90;;;;;;5050244;28;20020;-45
2022/10/03 01:54:39;;;;;;;21.08;4.80;;;11.00;99.90;;;;;;5049536;28;20086;-45
2022/10/03 01:57:26;;;;;;;21.70;3.92;;;11.00;99.90;;;;;;5049750;28;20108;-45
2022/10/03 02:00:04;;;;;;;26.25;5.03;;;10.90;99.90;;;;;;5050098;28;20029;-45
2022/10/03 02:02:38;;;;;;;33.50;5.45;;;10.90;99.90;;;;;;5049370;28;20228;-44
2022/10/03 02:05:34;;;;;;;28.15;4.10;;;10.90;99.90;;;;;;5049782;28;20052;-44
2022/10/03 02:08:45;;;;;;;23.08;4.15;;;10.90;99.90;;;;;;5049750;28;20028;-45
2022/10/03 02:11:30;;;;;;;25.30;3.75;;;10.80;99.90;;;;;;5041980;28;20057;-44
2022/10/03 02:14:16;;;;;;;24.50;4.13;;;10.90;99.90;;;;;;5061129;28;20028;-44
2022/10/03 02:16:57;;;;;;;24.88;4.13;;;10.80;99.90;;;;;;5069715;28;20020;-44
2022/10/03 02:19:28;;;;;;;;;;;10.80;99.90;;;;;;5068711;28;20056;-44
2022/10/03 02:21:56;;;;;;;21.85;3.85;;;10.80;99.90;;;;;;5069427;28;19915;-44
2022/10/03 02:24:35;;;;;;;31.92;5.75;;;10.80;99.90;;;;;;5067761;28;20027;-44
2022/10/03 02:27:16;;;;;;;20.25;4.05;;;10.80;99.90;;;;;;5068032;28;20036;-46
2022/10/03 02:30:24;;;;;;;23.88;3.85;;;10.70;99.90;;;;;;5069710;28;20502;-45
2022/10/03 02:33:08;;;;;;;19.60;4.43;;;10.60;99.90;;;;;;5057733;28;20135;-45
2022/10/03 02:36:13;;;;;;;25.23;4.53;;;10.60;99.90;;;;;;5069349;28;20102;-45
2022/10/03 02:38:58;;;;;;;23.30;4.28;;;10.60;99.90;;;;;;5069439;28;20201;-45
2022/10/03 02:42:03;;;;;;;24.45;4.28;;;10.50;99.90;;;;;;5061352;28;20020;-47
2022/10/03 02:44:50;;;;;;;21.77;4.40;;;10.50;99.90;;;;;;5052185;28;20025;-45
2022/10/03 02:47:56;;;;;;;26.17;3.78;;;10.50;99.90;;;;;;5069258;28;20020;-45
2022/10/03 02:50:59;;;;;;;27.02;4.85;;;10.40;99.90;;;;;;5069273;28;20060;-44
2022/10/03 02:53:55;;;;;;;20.25;3.80;;;10.40;99.90;;;;;;5067587;28;20051;-45
2022/10/03 02:56:55;;;;;;;17.95;4.03;;;10.40;99.90;;;;;;5067906;28;20115;-45
2022/10/03 02:59:44;;;;;;;27.73;5.18;;;10.40;99.90;;;;;;5067891;28;20028;-45
2022/10/03 03:02:34;;;;;;;19.30;4.88;;;10.30;99.90;;;;;;5068974;28;20039;-45
2022/10/03 03:05:18;;;;;;;19.17;4.10;;;10.30;99.90;;;;;;5067827;28;20032;-44
2022/10/03 03:08:24;;;;;;;19.73;3.67;;;10.30;99.90;;;;;;5069131;28;20167;-46
2022/10/03 03:11:25;;;;;;;22.75;4.82;;;10.30;99.90;;;;;;5066650;28;20359;-46
2022/10/03 03:14:09;;;;;;;;;;;10.30;99.90;;;;;;5052691;28;20021;-45
2022/10/03 03:16:46;;;;;;;22.35;4.13;;;10.30;99.90;;;;;;5048892;28;19905;-45
2022/10/03 03:19:17;;;;;;;28.92;4.13;;;10.30;99.90;;;;;;5048972;28;20451;-45
2022/10/03 03:22:24;;;;;;;24.48;4.60;;;10.20;99.90;;;;;;5049023;28;20021;-45
2022/10/03 03:25:11;;;;;;;22.08;3.80;;;10.20;99.90;;;;;;5026155;28;20468;-48
2022/10/03 03:27:59;;;;;;;19.35;3.83;;;10.30;99.90;;;;;;5048289;28;20549;-45
2022/10/03 03:30:35;;;;;;;19.98;4.40;;;10.30;99.90;;;;;;5048708;28;20371;-45
2022/10/03 03:33:15;;;;;;;19.38;3.67;;;10.30;99.90;;;;;;5048605;28;20044;-45
2022/10/03 03:35:47;;;;;;;18.20;4.50;;;10.30;99.90;;;;;;5048844;28;20048;-48
2022/10/03 03:38:29;;;;;;;25.35;4.50;;;10.30;99.90;;;;;;5049165;28;20032;-47
2022/10/03 03:41:29;;;;;;;25.45;5.20;;;10.20;99.90;;;;;;5045316;28;20028;-46
2022/10/03 03:44:12;;;;;;;21.77;4.40;;;10.20;99.90;;;;;;5052871;28;20394;-46
2022/10/03 03:46:56;;;;;;;19.80;4.35;;;10.30;99.90;;;;;;5052437;28;20060;-45
2022/10/03 03:50:03;;;;;;;32.17;6.68;;;10.20;99.90;;;;;;5052245;28;20017;-46
2022/10/03 03:52:44;;;;;;;19.42;3.67;;;10.20;99.90;;;;;;5051435;28;20037;-45
2022/10/03 03:55:37;;;;;;;17.40;3.92;;;10.20;99.90;;;;;;5052193;28;20497;-45
2022/10/03 03:58:36;;;;;;;34.13;5.32;;;10.20;99.90;;;;;;5051987;28;20021;-44
2022/10/03 04:01:28;;;;;;;21.25;4.78;;;10.20;99.90;;;;;;5051900;28;20021;-44
2022/10/03 04:04:26;;;;;;;22.08;4.38;;;10.10;99.90;;;;;;5051422;28;20021;-45
2022/10/03 04:07:19;;;;;;;23.60;5.07;;;10.10;99.90;;;;;;5051890;28;20131;-44
2022/10/03 04:10:22;;;;;;;33.85;4.70;;;10.10;99.90;;;;;;5052097;28;20538;-44
2022/10/03 04:13:03;;;;;;;28.77;5.65;;;10.10;99.90;;;;;;5054365;28;20025;-44
2022/10/03 04:15:29;;;;;;;;;;;10.00;99.90;;;;;;5032300;28;20024;-44
2022/10/03 04:21:21;;;;;;;23.02;4.28;;;10.00;99.90;;;;;;5031952;28;20095;-45
2022/10/03 04:24:12;;;;;;;22.52;4.32;;;9.90;99.90;;;;;;5030085;28;20044;-45
2022/10/03 04:26:50;;;;;;;;;;;9.90;99.90;;;;;;5032120;28;20049;-45
2022/10/03 04:29:28;;;;;;;29.33;4.95;;;9.90;99.90;;;;;;5031694;28;20201;-49
2022/10/03 04:32:08;;;;;;;19.98;4.32;;;9.90;99.90;;;;;;5031513;28;20037;-45
2022/10/03 04:34:51;;;;;;;17.70;3.97;;;9.90;99.90;;;;;;5031353;28;20028;-45
2022/10/03 04:37:26;;;;;;;21.17;4.40;;;9.90;99.90;;;;;;5031554;28;20351;-45
2022/10/03 04:39:58;;;;;;;27.08;4.85;;;9.90;99.90;;;;;;5030097;28;20487;-46
2022/10/03 04:42:45;;;;;;;23.95;4.43;;;9.90;99.90;;;;;;5049961;28;20472;-46
2022/10/03 04:45:39;;;;;;;20.40;4.30;;;10.00;99.90;;;;;;5044651;28;20057;-44
2022/10/03 04:48:09;;;;;;;25.88;4.53;;;10.00;99.90;;;;;;5051235;28;20028;-44
2022/10/03 04:50:38;;;;;;;;;;;10.00;99.90;;;;;;5051491;28;20036;-46
2022/10/03 04:53:07;;;;;;;16.23;4.22;;;10.00;99.90;;;;;;5050481;28;19911;-48
2022/10/03 04:55:47;;;;;;;23.98;4.55;;;10.00;99.90;;;;;;5049435;28;20038;-46
2022/10/03 04:58:36;;;;;;;25.88;4.07;;;10.10;99.90;;;;;;5050755;28;20021;-48
2022/10/03 05:01:25;;;;;;;20.50;3.67;;;10.10;99.90;;;;;;5049366;28;20116;-45
2022/10/03 05:04:29;;;;;;;23.48;5.07;;;10.10;99.90;;;;;;5050081;28;20028;-47
2022/10/03 05:07:19;;;;;;;21.42;4.68;;;10.10;99.90;;;;;;5039124;28;20144;-45
2022/10/03 05:10:02;;;;;;;14.05;3.30;;;10.10;99.90;;;;;;5045860;28;20025;-46
2022/10/03 05:12:39;;;;;;;21.92;4.90;;;10.10;99.90;;;;;;5057284;28;20259;-45
2022/10/03 05:15:29;;;;;;;22.77;5.10;;;10.10;99.90;;;;;;5066500;28;20020;-46
2022/10/03 05:18:01;;;;;;;19.75;3.55;;;10.10;99.90;;;;;;5070485;28;20021;-46
2022/10/03 05:20:56;;;;;;;12.68;3.78;;;10.00;99.90;;;;;;5070520;28;20037;-45
2022/10/03 05:23:51;;;;;;;17.67;4.90;;;10.00;99.90;;;;;;5069955;28;20024;-45
2022/10/03 05:26:30;;;;;;;29.45;4.75;;;10.00;99.90;;;;;;5070353;28;20504;-45
2022/10/03 05:29:26;;;;;;;16.45;3.95;;;9.90;99.90;;;;;;5070244;28;20024;-46
2022/10/03 05:32:11;;;;;;;32.53;5.28;;;9.90;99.90;;;;;;5070218;28;20028;-45
2022/10/03 05:34:54;;;;;;;27.73;5.10;;;9.90;99.90;;;;;;5069873;28;20497;-45
2022/10/03 05:38:12;;;;;;;23.13;4.50;;;9.80;99.90;;;;;;5070212;28;20090;-45
2022/10/03 05:40:59;;;;;;;17.40;4.38;;;9.80;99.90;;;;;;5047390;28;20041;-46
2022/10/03 05:44:03;;;;;;;17.25;4.50;;;9.80;99.90;;;;;;5031234;28;20018;-45
2022/10/03 05:50:29;;;;;;;16.95;3.97;;;9.90;99.90;;;;;;5037943;28;20529;-46
2022/10/03 05:53:11;;;;;;;15.68;3.70;;;9.90;99.90;;;;;;5030511;28;20670;-45
2022/10/03 05:56:04;;;;;;;19.98;4.32;;;9.90;99.90;;;;;;5031513;28;20024;-45
2022/10/03 05:58:56;;;;;;;20.95;4.25;;;9.90;99.90;;;;;;5041314;28;20083;-45
2022/10/03 06:01:41;;;;;;;24.83;4.28;;;9.90;99.90;;;;;;5030707;28;20033;-46
2022/10/03 06:04:31;;;;;;;14.82;3.83;;;9.90;99.90;;;;;;5031158;28;20037;-46
2022/10/03 06:07:22;;;;;;;25.35;4.07;;;10.00;99.90;;;;;;5043020;28;20025;-46
2022/10/03 06:10:32;;;;;;;21.13;4.47;;;10.00;99.90;;;;;;5043442;28;20126;-49
2022/10/03 06:13:19;;;;;;;20.35;4.82;;;10.00;99.90;;;;;;5038283;28;20645;-46
2022/10/03 06:15:56;;;;;;;17.67;4.05;;;10.10;99.90;;;;;;5030679;28;20037;-46
2022/10/03 06:18:55;;;;;;;24.33;3.80;;;10.10;99.90;;;;;;5030893;28;20026;-46
2022/10/03 06:21:46;;;;;;;20.23;4.45;;;10.10;99.90;;;;;;5030423;28;20033;-49
2022/10/03 06:24:58;;;;;;;20.27;5.03;;;10.10;99.90;;;;;;5032236;28;20129;-49
2022/10/03 06:27:45;;;;;;;23.13;4.57;;;10.20;99.90;;;;;;5038462;28;20104;-46
2022/10/03 06:30:21;;;;;;;18.23;4.47;;;10.30;99.90;;;;;;5044587;28;20017;-49
2022/10/03 06:33:27;;;;;;;19.80;4.72;;;10.30;99.90;;;;;;5043744;28;20488;-49
2022/10/03 06:36:11;;;;;;;14.45;3.78;;;10.40;99.90;;;;;;5046356;28;20017;-49
2022/10/03 06:39:12;;;;;;;23.95;3.97;;;10.50;99.90;;;;;;5045888;28;20014;-48
2022/10/03 06:42:26;;;;;;;22.75;3.95;;;10.50;99.90;;;;;;5044870;28;20060;-49
2022/10/03 06:44:57;;;;;;;16.70;4.25;;;10.60;99.90;;;;;;5031991;28;20546;-49
2022/10/03 06:48:00;;;;;;;21.10;4.13;;;10.70;99.90;;;;;;5043913;28;20029;-46
2022/10/03 06:50:54;;;;;;;14.45;3.92;;;10.80;99.90;;;;;;5040178;28;20416;-46
2022/10/03 06:53:31;;;;;;;19.88;4.10;;;10.80;99.90;;;;;;5032065;28;20030;-45
2022/10/03 06:56:12;;;;;;;17.08;4.75;;;10.80;99.90;;;;;;5037993;28;20018;-46
2022/10/03 06:59:04;;;;;;;18.85;4.30;;;10.90;99.90;;;;;;5040799;28;20031;-49
2022/10/03 07:01:51;;;;;;;20.52;4.35;;;10.90;99.90;;;;;;5037381;28;20029;-47
2022/10/03 07:04:47;;;;;;;18.25;4.20;;;11.00;99.90;;;;;;5039494;28;20025;-45
2022/10/03 07:07:55;;;;;;;17.13;3.65;;;11.00;99.90;;;;;;5038042;28;20078;-47
2022/10/03 07:10:56;;;;;;;16.00;4.10;;;11.00;99.90;;;;;;5039851;28;20025;-46
2022/10/03 07:13:49;;;;;;;18.65;4.07;;;11.10;99.90;;;;;;5036381;28;20045;-46
2022/10/03 07:17:07;;;;;;;20.45;3.10;;;11.20;99.90;;;;;;5038324;28;20056;-46
2022/10/03 07:19:47;;;;;;;14.95;3.35;;;11.30;99.90;;;;;;5043282;28;20044;-45
2022/10/03 07:22:23;;;;;;;21.20;4.60;;;11.30;99.90;;;;;;5042988;28;20124;-47
2022/10/03 07:25:01;;;;;;;25.23;4.30;;;11.40;99.90;;;;;;5046637;28;20463;-46
2022/10/03 07:28:05;;;;;;;18.20;4.38;;;11.40;99.90;;;;;;5036720;28;20703;-46
2022/10/03 07:30:55;;;;;;;14.27;3.88;;;11.60;99.90;;;;;;5036273;28;20033;-46
2022/10/03 07:33:48;;;;;;;16.23;3.85;;;11.80;99.90;;;;;;5049004;28;20025;-45
2022/10/03 07:40:00;;;;;;;14.07;3.92;;;12.10;99.90;;;;;;5037368;28;20089;-48
2022/10/03 07:42:33;;;;;;;17.02;4.07;;;12.30;99.90;;;;;;5036531;28;20029;-47
2022/10/03 07:45:22;;;;;;;14.38;3.22;;;12.30;99.90;;;;;;5050210;28;20035;-46
2022/10/03 07:48:16;;;;;;;18.02;3.53;;;12.30;99.90;;;;;;5035172;28;20053;-48
2022/10/03 07:51:06;;;;;;;17.10;4.03;;;12.30;99.90;;;;;;5042487;28;20025;-45
2022/10/03 07:53:50;;;;;;;14.88;3.17;;;12.30;99.90;;;;;;5041331;28;20033;-45
2022/10/03 07:56:42;;;;;;;16.23;3.90;;;12.40;99.90;;;;;;5043351;28;20025;-45
2022/10/03 07:59:45;;;;;;;17.33;3.42;;;12.40;99.90;;;;;;5042510;28;20108;-48
2022/10/03 08:02:48;;;;;;;20.45;3.70;;;12.50;99.90;;;;;;5042851;28;20036;-49
2022/10/03 08:05:45;;;;;;;17.02;3.40;;;12.60;99.90;;;;;;5041922;28;20471;-48
2022/10/03 08:08:38;;;;;;;11.27;3.13;;;12.60;99.90;;;;;;5042030;28;20030;-46
2022/10/03 08:11:34;;;;;;;14.85;3.83;;;12.70;99.90;;;;;;5048256;28;20039;-46
2022/10/03 08:14:20;;;;;;;12.13;3.28;;;12.80;99.90;;;;;;5040572;28;20025;-46
2022/10/03 08:17:12;;;;;;;9.60;2.58;;;13.00;99.90;;;;;;5046888;28;20433;-45
2022/10/03 08:19:38;;;;;;;14.70;2.95;;;13.30;99.90;;;;;;5051868;28;20037;-45
2022/10/03 08:22:41;;;;;;;14.55;2.90;;;13.50;99.90;;;;;;5051691;28;20029;-46
2022/10/03 08:25:27;;;;;;;16.80;2.95;;;13.70;99.90;;;;;;5031036;28;20538;-45
2022/10/03 08:28:18;;;;;;;16.42;3.38;;;13.90;99.90;;;;;;5047609;28;20070;-47
2022/10/03 08:31:02;;;;;;;16.73;3.42;;;14.00;99.90;;;;;;5047751;28;20040;-46
2022/10/03 08:33:53;;;;;;;19.02;3.38;;;14.20;99.90;;;;;;5039843;28;20474;-48
2022/10/03 08:36:29;;;;;;;11.15;2.30;;;15.30;99.90;;;;;;5040948;28;20647;-45
2022/10/03 08:39:02;;;;;;;11.52;3.00;;;16.80;99.90;;;;;;5040427;28;20036;-47
2022/10/03 08:42:08;;;;;;;18.05;3.67;;;18.30;99.90;;;;;;5043727;28;20029;-45
2022/10/03 08:45:02;;;;;;;8.65;2.40;;;17.80;99.90;;;;;;5031679;28;20037;-48
2022/10/03 08:48:07;;;;;;;8.50;2.53;;;19.50;99.90;;;;;;5038601;28;20033;-46
2022/10/03 08:50:58;;;;;;;14.68;2.85;;;21.10;99.90;;;;;;5042837;28;20017;-46
2022/10/03 08:54:06;;;;;;;11.63;3.20;;;22.00;97.00;;;;;;5037473;28;20039;-48
2022/10/03 08:56:45;;;;;;;10.65;2.58;;;22.90;94.10;;;;;;5038338;28;20021;-45
2022/10/03 08:59:44;;;;;;;13.05;2.85;;;23.50;93.20;;;;;;5044622;28;20029;-48
2022/10/03 09:02:16;;;;;;;9.80;2.72;;;24.10;90.50;;;;;;5041800;28;20037;-49
2022/10/03 09:05:15;;;;;;;12.55;3.42;;;25.10;87.70;;;;;;5040645;28;20098;-47
2022/10/03 09:08:17;;;;;;;16.63;3.47;;;25.20;85.10;;;;;;5039537;28;20025;-46
2022/10/03 09:11:22;;;;;;;10.27;3.08;;;24.80;84.70;;;;;;5046108;28;20020;-46
2022/10/03 09:14:12;;;;;;;10.57;3.05;;;25.00;86.00;;;;;;5039726;28;20026;-46
2022/10/03 09:16:53;;;;;;;12.93;3.25;;;23.90;85.20;;;;;;5038960;28;20570;-48
2022/10/03 09:20:07;;;;;;;8.98;2.70;;;22.90;87.30;;;;;;5039035;28;20087;-47
2022/10/03 09:23:10;;;;;;;11.45;2.65;;;21.60;91.30;;;;;;5041158;28;20033;-46
2022/10/03 09:26:00;;;;;;;10.45;3.55;;;20.50;92.30;;;;;;5034088;28;20383;-46
2022/10/03 09:28:50;;;;;;;9.45;3.58;;;19.30;94.70;;;;;;5031339;28;20096;-48
2022/10/03 09:31:38;;;;;;;12.88;3.30;;;19.10;95.80;;;;;;5036433;28;20030;-48
2022/10/03 09:34:28;;;;;;;7.35;2.47;;;19.30;96.10;;;;;;5029085;28;20029;-48
2022/10/03 09:37:11;;;;;;;11.13;3.38;;;19.70;95.40;;;;;;5031371;28;20472;-45
2022/10/03 09:40:04;;;;;;;18.08;3.38;;;19.70;94.60;;;;;;5030540;28;20467;-46
2022/10/03 09:43:06;;;;;;;16.85;3.33;;;19.10;95.70;;;;;;5029235;28;20407;-45
2022/10/03 09:45:58;;;;;;;16.42;3.63;;;18.50;96.70;;;;;;5031011;28;20021;-45
2022/10/03 09:48:33;;;;;;;23.08;3.33;;;17.90;98.10;;;;;;5031167;28;20110;-45
2022/10/03 09:51:25;;;;;;;15.13;3.33;;;17.50;99.20;;;;;;5032390;28;20025;-45
2022/10/03 09:54:30;;;;;;;15.57;2.97;;;16.90;99.90;;;;;;5048539;28;20033;-48
2022/10/03 09:57:28;;;;;;;13.98;3.00;;;16.70;99.90;;;;;;5049729;28;20033;-49
2022/10/03 10:00:01;;;;;;;14.45;3.40;;;16.50;99.90;;;;;;5049567;28;20025;-47
2022/10/03 10:02:45;;;;;;;20.23;4.60;;;16.40;99.90;;;;;;5050395;28;20159;-48
2022/10/03 10:05:38;;;;;;;16.05;3.40;;;16.10;99.90;;;;;;5050964;28;20029;-48
2022/10/03 10:08:51;;;;;;;17.65;3.15;;;16.00;99.90;;;;;;5050602;28;20526;-46
2022/10/03 10:11:37;;;;;;;12.52;2.80;;;15.70;99.90;;;;;;5047331;28;20076;-44
2022/10/03 10:14:39;;;;;;;15.82;3.58;;;15.60;99.90;;;;;;5049919;28;20048;-45
2022/10/03 10:17:46;;;;;;;15.93;2.60;;;15.50;99.90;;;;;;5050353;28;20025;-48
2022/10/03 10:20:21;;;;;;;10.52;2.78;;;15.50;99.90;;;;;;5048478;28;20367;-46
2022/10/03 10:23:09;;;;;;;11.75;2.95;;;15.60;99.90;;;;;;5032261;28;20044;-48
2022/10/03 10:25:57;;;;;;;11.70;3.35;;;15.60;99.90;;;;;;5039701;28;20387;-48
2022/10/03 10:28:59;;;;;;;14.20;3.13;;;15.70;99.90;;;;;;5049023;28;20025;-46
2022/10/03 10:31:58;;;;;;;15.15;3.40;;;15.70;99.90;;;;;;5049115;28;20029;-46
2022/10/03 10:34:38;;;;;;;11.43;2.53;;;15.70;99.90;;;;;;5048677;28;20545;-48
2022/10/03 10:37:43;;;;;;;14.77;2.15;;;15.70;99.90;;;;;;5048981;28;20118;-47
2022/10/03 10:40:42;;;;;;;5.90;2.22;;;15.80;99.90;;;;;;5048994;28;20036;-45
2022/10/03 10:43:40;;;;;;;8.27;2.33;;;15.80;99.90;;;;;;5048489;28;20474;-45
2022/10/03 10:46:35;;;;;;;8.85;2.00;;;17.50;99.90;;;;;;5048918;28;20475;-47
2022/10/03 10:49:38;;;;;;;7.18;1.83;;;19.90;99.90;;;;;;5041549;28;20025;-48
2022/10/03 10:52:36;;;;;;;7.13;1.77;;;22.10;97.40;;;;;;5028819;28;20037;-48
2022/10/03 10:55:40;;;;;;;4.55;1.42;;;22.80;96.30;;;;;;5031618;28;20025;-45
2022/10/03 10:58:36;;;;;;;2.22;1.17;;;23.80;92.60;;;;;;5032927;28;20446;-45
2022/10/03 11:01:30;;;;;;;4.20;1.83;;;24.80;91.20;;;;;;5031425;28;20041;-46
2022/10/03 11:04:43;;;;;;;3.30;1.48;;;25.70;89.30;;;;;;5032921;28;20028;-46
2022/10/03 11:07:44;;;;;;;5.63;1.40;;;25.40;85.20;;;;;;5031638;28;20025;-46
2022/10/03 11:10:30;;;;;;;3.58;1.58;;;26.10;83.00;;;;;;5032740;28;20116;-45
2022/10/03 11:13:39;;;;;;;5.68;1.80;;;25.20;82.30;;;;;;5032112;28;20438;-49
2022/10/03 11:16:33;;;;;;;6.65;1.50;;;24.40;88.90;;;;;;5032172;28;20395;-46
2022/10/03 11:19:25;;;;;;;6.65;2.20;;;25.30;86.10;;;;;;5032108;28;20052;-46
2022/10/03 11:21:53;;;;;;;4.78;1.67;;;24.30;81.80;;;;;;5031959;28;20021;-44
2022/10/03 11:24:47;;;;;;;7.63;1.98;;;23.30;85.40;;;;;;5031898;28;20388;-44
2022/10/03 11:27:34;;;;;;;5.80;1.58;;;22.10;89.90;;;;;;5032600;28;20025;-46
2022/10/03 11:30:18;;;;;;;7.88;2.00;;;21.80;90.20;;;;;;5032766;28;20037;-47
2022/10/03 11:33:15;;;;;;;8.75;2.05;;;21.00;92.10;;;;;;5032136;28;20473;-47
2022/10/03 11:36:08;;;;;;;8.02;1.85;;;21.00;93.60;;;;;;5032426;28;20044;-48
2022/10/03 11:38:54;;;;;;;10.48;2.30;;;21.70;92.30;;;;;;5032122;28;20044;-45
2022/10/03 11:41:58;;;;;;;8.18;1.67;;;21.30;90.90;;;;;;5032016;28;20040;-47
2022/10/03 11:44:40;;;;;;;11.63;1.83;;;20.30;92.90;;;;;;5020316;28;20033;-48
2022/10/03 11:47:31;;;;;;;6.25;1.95;;;19.50;93.30;;;;;;5032408;28;20087;-46
2022/10/03 11:50:02;;;;;;;7.03;1.65;;;18.90;94.70;;;;;;5032068;28;20177;-45
2022/10/03 11:52:37;;;;;;;9.60;2.17;;;18.40;95.70;;;;;;5030304;28;20402;-45
2022/10/03 11:55:28;;;;;;;8.98;2.35;;;17.90;98.30;;;;;;5031920;28;20029;-46
2022/10/03 11:58:27;;;;;;;6.35;1.60;;;17.50;99.10;;;;;;5031883;28;20494;-46
2022/10/03 12:01:29;;;;;;;10.45;2.15;;;17.30;99.90;;;;;;5031693;28;20030;-46
2022/10/03 12:04:24;;;;;;;8.70;2.00;;;17.00;99.90;;;;;;5029854;28;20028;-45
2022/10/03 12:10:00;;;;;;;7.80;2.42;;;16.60;99.90;;;;;;5031645;28;20075;-45
2022/10/03 12:12:44;;;;;;;7.05;2.05;;;16.30;99.90;;;;;;5031539;28;20351;-45
2022/10/03 12:15:27;;;;;;;7.50;2.00;;;16.00;99.90;;;;;;5031791;28;20518;-45
2022/10/03 12:18:03;;;;;;;8.07;2.15;;;15.70;99.90;;;;;;5031427;28;20109;-44
2022/10/03 12:21:08;;;;;;;11.27;2.28;;;15.50;99.90;;;;;;5031233;28;20045;-44
2022/10/03 12:23:52;;;;;;;10.68;2.78;;;15.30;99.90;;;;;;5030868;28;20025;-47
2022/10/03 12:26:29;;;;;;;7.10;1.95;;;15.70;99.90;;;;;;5031221;28;20021;-45
2022/10/03 12:28:57;;;;;;;8.57;2.63;;;16.40;99.90;;;;;;5031375;28;20039;-46
2022/10/03 12:31:54;;;;;;;7.72;2.25;;;17.10;99.90;;;;;;5031368;28;20013;-46
2022/10/03 12:34:35;;;;;;;11.15;2.88;;;17.70;99.90;;;;;;5029611;28;20083;-45
2022/10/03 12:37:04;;;;;;;12.38;2.55;;;18.20;99.90;;;;;;5031220;28;20033;-46
2022/10/03 12:39:45;;;;;;;8.68;2.30;;;18.50;99.90;;;;;;5031230;28;20048;-46
2022/10/03 12:42:28;;;;;;;10.38;2.47;;;18.90;99.90;;;;;;5031130;28;20038;-47
2022/10/03 12:44:59;;;;;;;10.15;2.25;;;19.40;99.90;;;;;;5030574;28;20471;-46
2022/10/03 12:48:00;;;;;;;8.80;2.42;;;19.50;99.90;;;;;;5030991;28;20087;-47
2022/10/03 12:50:37;;;;;;;7.03;2.25;;;19.60;99.90;;;;;;5026817;28;20037;-46
2022/10/03 12:53:16;;;;;;;11.23;2.45;;;19.80;99.90;;;;;;5030340;28;20441;-46
2022/10/03 12:56:09;;;;;;;9.25;2.40;;;20.10;99.90;;;;;;5030747;28;20104;-48
2022/10/03 12:58:58;;;;;;;8.15;2.72;;;19.80;99.90;;;;;;5030709;28;20021;-46
2022/10/03 13:01:37;;;;;;;12.38;2.15;;;19.20;99.90;;;;;;5030928;28;20029;-48
2022/10/03 13:04:20;;;;;;;10.90;2.35;;;19.00;99.90;;;;;;5030176;28;20022;-43
2022/10/03 13:07:08;;;;;;;14.82;4.47;;;18.80;99.90;;;;;;5030594;28;20079;-43
2022/10/03 13:10:10;;;;;;;11.48;3.10;;;18.40;99.90;;;;;;5030429;28;20037;-43
2022/10/03 13:12:41;;;;;;;13.68;2.45;;;18.00;99.90;;;;;;5030090;28;20036;-47
2022/10/03 13:15:38;;;;;;;6.30;1.88;;;17.80;99.90;;;;;;5030392;28;20394;-43
2022/10/03 13:18:28;;;;;;;10.27;2.40;;;17.50;99.90;;;;;;5031010;28;20029;-48
2022/10/03 13:21:25;;;;;;;9.15;2.28;;;17.20;99.90;;;;;;5029259;28;20384;-49
2022/10/03 13:23:57;;;;;;;8.48;2.00;;;17.00;99.90;;;;;;5029974;28;20041;-45
2022/10/03 13:26:22;;;;;;;10.27;2.20;;;16.60;99.90;;;;;;5030147;28;20018;-45
2022/10/03 13:29:12;;;;;;;7.82;2.08;;;16.10;99.90;;;;;;5030743;28;20542;-46
2022/10/03 13:32:07;;;;;;;4.50;1.75;;;15.60;99.90;;;;;;5030104;28;20022;-46
2022/10/03 13:34:50;;;;;;;9.93;2.28;;;15.40;99.90;;;;;;5027321;28;20095;-46
2022/10/03 13:37:32;;;;;;;12.95;2.17;;;15.10;99.90;;;;;;5030031;28;20025;-46
2022/10/03 13:40:07;;;;;;;13.38;2.15;;;14.90;99.90;;;;;;5030396;28;20044;-45
2022/10/03 13:42:40;;;;;;;10.85;2.42;;;15.00;99.90;;;;;;5029612;28;20391;-46
2022/10/03 13:45:15;;;;;;;7.28;2.22;;;15.20;99.90;;;;;;5012478;28;20502;-46
2022/10/03 13:47:45;;;;;;;8.23;2.40;;;15.60;99.90;;;;;;5030043;28;20075;-49
2022/10/03 13:50:23;;;;;;;11.15;3.20;;;16.10;99.90;;;;;;5030043;28;20017;-49
2022/10/03 13:52:57;;;;;;;11.15;2.53;;;16.40;99.90;;;;;;5029277;28;20025;-48
2022/10/03 13:55:28;;;;;;;7.18;1.83;;;16.60;99.90;;;;;;5029610;28;20053;-45
2022/10/03 13:58:20;;;;;;;6.93;2.60;;;16.50;99.90;;;;;;5029570;28;20059;-49
2022/10/03 14:00:45;;;;;;;5.13;2.50;;;16.30;99.90;;;;;;5029722;28;20025;-47
2022/10/03 14:03:30;;;;;;;9.63;2.10;;;16.30;99.90;;;;;;5029309;28;20241;-47
2022/10/03 14:05:58;;;;;;;7.40;1.92;;;16.20;99.90;;;;;;5029552;28;20100;-46
2022/10/03 14:08:59;;;;;;;8.15;1.80;;;16.20;99.90;;;;;;5029573;28;20531;-46
2022/10/03 14:11:46;;;;;;;7.95;1.70;;;16.20;99.90;;;;;;5029637;28;20061;-47
2022/10/03 14:14:46;;;;;;;6.47;1.85;;;16.10;99.90;;;;;;5028941;28;20036;-44
2022/10/03 14:17:22;;;;;;;10.35;2.80;;;16.10;99.90;;;;;;5027920;28;20037;-45
2022/10/03 14:20:05;;;;;;;6.50;1.88;;;16.00;99.90;;;;;;5029284;28;20120;-45
2022/10/03 14:22:39;;;;;;;8.85;1.58;;;15.90;99.90;;;;;;5028702;28;20029;-43
2022/10/03 14:25:27;;;;;;;10.63;1.90;;;15.80;99.90;;;;;;5029248;28;20585;-44
2022/10/03 14:28:03;;;;;;;10.70;2.83;;;15.40;99.90;;;;;;5028774;28;20014;-43
2022/10/03 14:30:49;;;;;;;9.30;2.40;;;15.20;99.90;;;;;;5029145;28;20026;-43
2022/10/03 14:33:26;;;;;;;12.55;2.85;;;14.90;99.90;;;;;;5028581;28;20092;-44
2022/10/03 14:36:19;;;;;;;11.98;2.60;;;14.70;99.90;;;;;;5029083;28;20053;-44
2022/10/03 14:39:11;;;;;;;10.57;3.47;;;14.60;99.90;;;;;;5029051;28;20028;-47
2022/10/03 14:42:08;;;;;;;12.95;2.47;;;14.50;99.90;;;;;;5044494;28;20037;-46
2022/10/03 14:44:41;;;;;;;9.52;2.35;;;14.50;99.90;;;;;;5048285;28;20534;-48